sensor_id;sensor_type;location;lat;lon;timestamp;P1;P2;P0
44350;PMS5003;62766;62.622;17.912;2023-09-19T00:00:06;2;1;
44350;PMS5003;62766;62.622;17.912;2023-09-19T00:02:35;0;0;
44350;PMS5003;62766;62.622;17.912;2023-09-19T00:05:04;1;1;
44350;PMS5003;62766;62.622;17.912;2023-09-19T00:07:31;1;1;
44350;PMS5003;62766;62.622;17.912;2023-09-19T00:10:00;2;1;
44350;PMS5003;62766;62.622;17.912;2023-09-19T00:12:28;3;2;
44350;PMS5003;62766;62.622;17.912;2023-09-19T00:14:58;1;1;
44350;PMS5003;62766;62.622;17.912;2023-09-19T00:17:26;2;2;
44350;PMS5003;62766;62.622;17.912;2023-09-19T00:19:54;1;1;
44350;PMS5003;62766;62.622;17.912;2023-09-19T00:22:22;0;0;
44350;PMS5003;62766;62.622;17.912;2023-09-19T00:24:50;2;2;
44350;PMS5003;62766;62.622;17.912;2023-09-19T00:27:19;1;1;
44350;PMS5003;62766;62.622;17.912;2023-09-19T00:29:47;0;0;
44350;PMS5003;62766;62.622;17.912;2023-09-19T00:32:15;4;2;
44350;PMS5003;62766;62.622;17.912;2023-09-19T00:34:43;1;0;
44350;PMS5003;62766;62.622;17.912;2023-09-19T00:37:12;2;2;
44350;PMS5003;62766;62.622;17.912;2023-09-19T00:39:40;1;1;
44350;PMS5003;62766;62.622;17.912;2023-09-19T00:42:09;2;2;
44350;PMS5003;62766;62.622;17.912;2023-09-19T00:44:46;3;2;
44350;PMS5003;62766;62.622;17.912;2023-09-19T00:47:14;2;2;
44350;PMS5003;62766;62.622;17.912;2023-09-19T00:49:42;1;1;
44350;PMS5003;62766;62.622;17.912;2023-09-19T00:52:10;1;1;
44350;PMS5003;62766;62.622;17.912;2023-09-19T00:54:40;3;1;
44350;PMS5003;62766;62.622;17.912;2023-09-19T00:57:08;2;2;
44350;PMS5003;62766;62.622;17.912;2023-09-19T00:59:36;1;1;
44350;PMS5003;62766;62.622;17.912;2023-09-19T01:02:04;3;3;
44350;PMS5003;62766;62.622;17.912;2023-09-19T01:04:34;1;1;
44350;PMS5003;62766;62.622;17.912;2023-09-19T01:07:04;1;1;
44350;PMS5003;62766;62.622;17.912;2023-09-19T01:09:32;0;0;
44350;PMS5003;62766;62.622;17.912;2023-09-19T01:12:01;1;1;
44350;PMS5003;62766;62.622;17.912;2023-09-19T01:14:34;4;1;
44350;PMS5003;62766;62.622;17.912;2023-09-19T01:17:13;1;1;
44350;PMS5003;62766;62.622;17.912;2023-09-19T01:20:02;1;1;
44350;PMS5003;62766;62.622;17.912;2023-09-19T01:22:42;0;0;
44350;PMS5003;62766;62.622;17.912;2023-09-19T01:25:28;2;2;
44350;PMS5003;62766;62.622;17.912;2023-09-19T01:28:16;2;0;
44350;PMS5003;62766;62.622;17.912;2023-09-19T01:30:58;1;1;
44350;PMS5003;62766;62.622;17.912;2023-09-19T01:33:52;2;1;
44350;PMS5003;62766;62.622;17.912;2023-09-19T01:36:22;2;2;
44350;PMS5003;62766;62.622;17.912;2023-09-19T01:38:51;3;1;
44350;PMS5003;62766;62.622;17.912;2023-09-19T01:41:21;0;0;
44350;PMS5003;62766;62.622;17.912;2023-09-19T01:43:54;3;3;
44350;PMS5003;62766;62.622;17.912;2023-09-19T01:46:24;4;2;
44350;PMS5003;62766;62.622;17.912;2023-09-19T01:49:01;5;2;
44350;PMS5003;62766;62.622;17.912;2023-09-19T01:51:46;2;2;
44350;PMS5003;62766;62.622;17.912;2023-09-19T01:54:24;2;1;
44350;PMS5003;62766;62.622;17.912;2023-09-19T01:56:57;2;2;
44350;PMS5003;62766;62.622;17.912;2023-09-19T01:59:35;0;0;
44350;PMS5003;62766;62.622;17.912;2023-09-19T02:02:08;1;1;
44350;PMS5003;62766;62.622;17.912;2023-09-19T02:04:38;2;2;
44350;PMS5003;62766;62.622;17.912;2023-09-19T02:07:06;2;1;
44350;PMS5003;62766;62.622;17.912;2023-09-19T02:09:36;6;2;
44350;PMS5003;62766;62.622;17.912;2023-09-19T02:12:05;2;2;
44350;PMS5003;62766;62.622;17.912;2023-09-19T02:14:34;1;1;
44350;PMS5003;62766;62.622;17.912;2023-09-19T02:17:03;2;1;
44350;PMS5003;62766;62.622;17.912;2023-09-19T02:19:31;3;2;
44350;PMS5003;62766;62.622;17.912;2023-09-19T02:21:59;3;1;
44350;PMS5003;62766;62.622;17.912;2023-09-19T02:24:27;2;2;
44350;PMS5003;62766;62.622;17.912;2023-09-19T02:26:55;4;2;
44350;PMS5003;62766;62.622;17.912;2023-09-19T02:29:23;3;2;
44350;PMS5003;62766;62.622;17.912;2023-09-19T02:31:51;1;1;
44350;PMS5003;62766;62.622;17.912;2023-09-19T02:34:20;2;2;
44350;PMS5003;62766;62.622;17.912;2023-09-19T02:36:48;3;2;
44350;PMS5003;62766;62.622;17.912;2023-09-19T02:39:16;2;2;
44350;PMS5003;62766;62.622;17.912;2023-09-19T02:41:44;1;1;
44350;PMS5003;62766;62.622;17.912;2023-09-19T02:44:12;1;1;
44350;PMS5003;62766;62.622;17.912;2023-09-19T02:46:40;1;1;
44350;PMS5003;62766;62.622;17.912;2023-09-19T02:49:08;1;1;
44350;PMS5003;62766;62.622;17.912;2023-09-19T02:51:37;1;1;
44350;PMS5003;62766;62.622;17.912;2023-09-19T02:54:05;1;1;
44350;PMS5003;62766;62.622;17.912;2023-09-19T02:56:35;3;1;
44350;PMS5003;62766;62.622;17.912;2023-09-19T02:59:03;1;1;
44350;PMS5003;62766;62.622;17.912;2023-09-19T03:01:31;3;3;
44350;PMS5003;62766;62.622;17.912;2023-09-19T03:03:59;1;1;
44350;PMS5003;62766;62.622;17.912;2023-09-19T03:06:27;1;1;
44350;PMS5003;62766;62.622;17.912;2023-09-19T03:08:57;1;1;
44350;PMS5003;62766;62.622;17.912;2023-09-19T03:11:25;1;1;
44350;PMS5003;62766;62.622;17.912;2023-09-19T03:13:54;5;3;
44350;PMS5003;62766;62.622;17.912;2023-09-19T03:16:22;1;1;
44350;PMS5003;62766;62.622;17.912;2023-09-19T03:18:50;2;2;
44350;PMS5003;62766;62.622;17.912;2023-09-19T03:21:18;4;1;
44350;PMS5003;62766;62.622;17.912;2023-09-19T03:23:47;3;2;
44350;PMS5003;62766;62.622;17.912;2023-09-19T03:26:15;2;2;
44350;PMS5003;62766;62.622;17.912;2023-09-19T03:28:43;1;1;
44350;PMS5003;62766;62.622;17.912;2023-09-19T03:31:11;1;1;
44350;PMS5003;62766;62.622;17.912;2023-09-19T03:33:39;2;2;
44350;PMS5003;62766;62.622;17.912;2023-09-19T03:36:07;2;2;
44350;PMS5003;62766;62.622;17.912;2023-09-19T03:38:36;2;2;
44350;PMS5003;62766;62.622;17.912;2023-09-19T03:41:04;2;2;
44350;PMS5003;62766;62.622;17.912;2023-09-19T03:43:32;4;4;
44350;PMS5003;62766;62.622;17.912;2023-09-19T03:46:01;4;3;
44350;PMS5003;62766;62.622;17.912;2023-09-19T03:48:29;2;1;
44350;PMS5003;62766;62.622;17.912;2023-09-19T03:50:59;6;5;
44350;PMS5003;62766;62.622;17.912;2023-09-19T03:53:27;4;3;
44350;PMS5003;62766;62.622;17.912;2023-09-19T03:55:55;4;4;
44350;PMS5003;62766;62.622;17.912;2023-09-19T03:58:23;2;2;
44350;PMS5003;62766;62.622;17.912;2023-09-19T04:03:39;1;1;
44350;PMS5003;62766;62.622;17.912;2023-09-19T04:06:07;4;1;
44350;PMS5003;62766;62.622;17.912;2023-09-19T04:08:36;3;2;
44350;PMS5003;62766;62.622;17.912;2023-09-19T04:11:04;3;2;
44350;PMS5003;62766;62.622;17.912;2023-09-19T04:13:32;3;1;
44350;PMS5003;62766;62.622;17.912;2023-09-19T04:16:02;2;2;
44350;PMS5003;62766;62.622;17.912;2023-09-19T04:18:32;4;3;
44350;PMS5003;62766;62.622;17.912;2023-09-19T04:21:02;4;2;
44350;PMS5003;62766;62.622;17.912;2023-09-19T04:23:30;3;3;
44350;PMS5003;62766;62.622;17.912;2023-09-19T04:26:00;11;5;
44350;PMS5003;62766;62.622;17.912;2023-09-19T04:28:28;4;2;
44350;PMS5003;62766;62.622;17.912;2023-09-19T04:30:56;2;2;
44350;PMS5003;62766;62.622;17.912;2023-09-19T04:33:25;1;1;
44350;PMS5003;62766;62.622;17.912;2023-09-19T04:35:53;3;3;
44350;PMS5003;62766;62.622;17.912;2023-09-19T04:38:21;2;2;
44350;PMS5003;62766;62.622;17.912;2023-09-19T04:40:49;4;4;
44350;PMS5003;62766;62.622;17.912;2023-09-19T04:43:17;7;3;
44350;PMS5003;62766;62.622;17.912;2023-09-19T04:45:45;2;2;
44350;PMS5003;62766;62.622;17.912;2023-09-19T04:48:14;5;5;
44350;PMS5003;62766;62.622;17.912;2023-09-19T04:50:42;6;6;
44350;PMS5003;62766;62.622;17.912;2023-09-19T04:53:10;6;4;
44350;PMS5003;62766;62.622;17.912;2023-09-19T04:55:38;3;2;
44350;PMS5003;62766;62.622;17.912;2023-09-19T04:58:06;3;3;
44350;PMS5003;62766;62.622;17.912;2023-09-19T05:00:34;4;3;
44350;PMS5003;62766;62.622;17.912;2023-09-19T05:03:03;2;2;
44350;PMS5003;62766;62.622;17.912;2023-09-19T05:05:33;6;4;
44350;PMS5003;62766;62.622;17.912;2023-09-19T05:08:03;4;4;
44350;PMS5003;62766;62.622;17.912;2023-09-19T05:10:33;3;3;
44350;PMS5003;62766;62.622;17.912;2023-09-19T05:13:02;7;4;
44350;PMS5003;62766;62.622;17.912;2023-09-19T05:15:30;3;2;
44350;PMS5003;62766;62.622;17.912;2023-09-19T05:18:00;3;3;
44350;PMS5003;62766;62.622;17.912;2023-09-19T05:20:28;1;1;
44350;PMS5003;62766;62.622;17.912;2023-09-19T05:22:57;4;2;
44350;PMS5003;62766;62.622;17.912;2023-09-19T05:25:27;3;3;
44350;PMS5003;62766;62.622;17.912;2023-09-19T05:27:56;4;4;
44350;PMS5003;62766;62.622;17.912;2023-09-19T05:30:25;7;5;
44350;PMS5003;62766;62.622;17.912;2023-09-19T05:32:53;3;3;
44350;PMS5003;62766;62.622;17.912;2023-09-19T05:35:22;4;2;
44350;PMS5003;62766;62.622;17.912;2023-09-19T05:37:52;3;3;
44350;PMS5003;62766;62.622;17.912;2023-09-19T05:40:22;3;3;
44350;PMS5003;62766;62.622;17.912;2023-09-19T05:42:50;3;3;
44350;PMS5003;62766;62.622;17.912;2023-09-19T05:45:18;2;2;
44350;PMS5003;62766;62.622;17.912;2023-09-19T05:47:46;3;2;
44350;PMS5003;62766;62.622;17.912;2023-09-19T05:50:14;4;4;
44350;PMS5003;62766;62.622;17.912;2023-09-19T05:52:43;2;2;
44350;PMS5003;62766;62.622;17.912;2023-09-19T05:55:11;4;3;
44350;PMS5003;62766;62.622;17.912;2023-09-19T05:57:39;2;2;
44350;PMS5003;62766;62.622;17.912;2023-09-19T06:00:07;1;1;
44350;PMS5003;62766;62.622;17.912;2023-09-19T06:02:37;1;1;
44350;PMS5003;62766;62.622;17.912;2023-09-19T06:05:06;4;2;
44350;PMS5003;62766;62.622;17.912;2023-09-19T06:07:35;1;0;
44350;PMS5003;62766;62.622;17.912;2023-09-19T06:10:03;4;3;
44350;PMS5003;62766;62.622;17.912;2023-09-19T06:12:31;3;3;
44350;PMS5003;62766;62.622;17.912;2023-09-19T06:15:01;2;2;
44350;PMS5003;62766;62.622;17.912;2023-09-19T06:17:29;2;1;
44350;PMS5003;62766;62.622;17.912;2023-09-19T06:19:57;2;2;
44350;PMS5003;62766;62.622;17.912;2023-09-19T06:22:25;2;2;
44350;PMS5003;62766;62.622;17.912;2023-09-19T06:24:54;2;2;
44350;PMS5003;62766;62.622;17.912;2023-09-19T06:27:22;3;3;
44350;PMS5003;62766;62.622;17.912;2023-09-19T06:29:50;6;3;
44350;PMS5003;62766;62.622;17.912;2023-09-19T06:32:18;5;3;
44350;PMS5003;62766;62.622;17.912;2023-09-19T06:34:51;5;3;
44350;PMS5003;62766;62.622;17.912;2023-09-19T06:37:19;4;4;
44350;PMS5003;62766;62.622;17.912;2023-09-19T06:39:48;3;2;
44350;PMS5003;62766;62.622;17.912;2023-09-19T06:42:16;4;4;
44350;PMS5003;62766;62.622;17.912;2023-09-19T06:44:44;4;3;
44350;PMS5003;62766;62.622;17.912;2023-09-19T06:47:12;4;2;
44350;PMS5003;62766;62.622;17.912;2023-09-19T06:49:40;2;2;
44350;PMS5003;62766;62.622;17.912;2023-09-19T06:52:08;3;3;
44350;PMS5003;62766;62.622;17.912;2023-09-19T06:54:36;6;4;
44350;PMS5003;62766;62.622;17.912;2023-09-19T06:57:05;2;2;
44350;PMS5003;62766;62.622;17.912;2023-09-19T06:59:33;3;3;
44350;PMS5003;62766;62.622;17.912;2023-09-19T07:02:03;2;2;
44350;PMS5003;62766;62.622;17.912;2023-09-19T07:04:31;4;3;
44350;PMS5003;62766;62.622;17.912;2023-09-19T07:07:01;3;2;
44350;PMS5003;62766;62.622;17.912;2023-09-19T07:09:29;4;3;
44350;PMS5003;62766;62.622;17.912;2023-09-19T07:11:57;6;4;
44350;PMS5003;62766;62.622;17.912;2023-09-19T07:14:25;3;3;
44350;PMS5003;62766;62.622;17.912;2023-09-19T07:16:53;3;2;
44350;PMS5003;62766;62.622;17.912;2023-09-19T07:19:21;3;2;
44350;PMS5003;62766;62.622;17.912;2023-09-19T07:21:50;5;5;
44350;PMS5003;62766;62.622;17.912;2023-09-19T07:24:18;5;5;
44350;PMS5003;62766;62.622;17.912;2023-09-19T07:26:46;2;2;
44350;PMS5003;62766;62.622;17.912;2023-09-19T07:29:14;2;2;
44350;PMS5003;62766;62.622;17.912;2023-09-19T07:31:42;5;5;
44350;PMS5003;62766;62.622;17.912;2023-09-19T07:34:11;4;2;
44350;PMS5003;62766;62.622;17.912;2023-09-19T07:36:39;4;2;
44350;PMS5003;62766;62.622;17.912;2023-09-19T07:39:07;2;2;
44350;PMS5003;62766;62.622;17.912;2023-09-19T07:41:35;4;3;
44350;PMS5003;62766;62.622;17.912;2023-09-19T07:44:04;2;2;
44350;PMS5003;62766;62.622;17.912;2023-09-19T07:49:00;2;2;
44350;PMS5003;62766;62.622;17.912;2023-09-19T07:51:28;3;2;
44350;PMS5003;62766;62.622;17.912;2023-09-19T07:53:56;3;2;
44350;PMS5003;62766;62.622;17.912;2023-09-19T07:56:24;4;4;
44350;PMS5003;62766;62.622;17.912;2023-09-19T07:58:53;3;3;
44350;PMS5003;62766;62.622;17.912;2023-09-19T08:01:21;4;4;
44350;PMS5003;62766;62.622;17.912;2023-09-19T08:03:49;4;4;
44350;PMS5003;62766;62.622;17.912;2023-09-19T08:06:17;8;4;
44350;PMS5003;62766;62.622;17.912;2023-09-19T08:08:45;8;6;
44350;PMS5003;62766;62.622;17.912;2023-09-19T08:11:14;11;5;
44350;PMS5003;62766;62.622;17.912;2023-09-19T08:13:42;3;3;
44350;PMS5003;62766;62.622;17.912;2023-09-19T08:16:10;4;3;
44350;PMS5003;62766;62.622;17.912;2023-09-19T08:18:38;8;7;
44350;PMS5003;62766;62.622;17.912;2023-09-19T08:21:07;4;4;
44350;PMS5003;62766;62.622;17.912;2023-09-19T08:23:35;4;3;
44350;PMS5003;62766;62.622;17.912;2023-09-19T08:26:03;3;3;
44350;PMS5003;62766;62.622;17.912;2023-09-19T08:28:32;4;3;
44350;PMS5003;62766;62.622;17.912;2023-09-19T08:31:02;7;5;
44350;PMS5003;62766;62.622;17.912;2023-09-19T08:33:31;4;4;
44350;PMS5003;62766;62.622;17.912;2023-09-19T08:36:01;8;5;
44350;PMS5003;62766;62.622;17.912;2023-09-19T08:38:30;7;4;
44350;PMS5003;62766;62.622;17.912;2023-09-19T08:40:59;5;5;
44350;PMS5003;62766;62.622;17.912;2023-09-19T08:43:29;5;5;
44350;PMS5003;62766;62.622;17.912;2023-09-19T08:45:58;6;6;
44350;PMS5003;62766;62.622;17.912;2023-09-19T08:48:36;6;5;
44350;PMS5003;62766;62.622;17.912;2023-09-19T08:51:10;5;4;
44350;PMS5003;62766;62.622;17.912;2023-09-19T08:53:47;7;4;
44350;PMS5003;62766;62.622;17.912;2023-09-19T08:56:20;6;5;
44350;PMS5003;62766;62.622;17.912;2023-09-19T08:58:53;4;4;
44350;PMS5003;62766;62.622;17.912;2023-09-19T09:01:25;6;4;
44350;PMS5003;62766;62.622;17.912;2023-09-19T09:03:55;4;4;
44350;PMS5003;62766;62.622;17.912;2023-09-19T09:06:24;3;3;
44350;PMS5003;62766;62.622;17.912;2023-09-19T09:08:53;5;4;
44350;PMS5003;62766;62.622;17.912;2023-09-19T09:11:21;4;3;
44350;PMS5003;62766;62.622;17.912;2023-09-19T09:13:50;4;4;
44350;PMS5003;62766;62.622;17.912;2023-09-19T09:16:18;7;6;
44350;PMS5003;62766;62.622;17.912;2023-09-19T09:18:46;4;4;
44350;PMS5003;62766;62.622;17.912;2023-09-19T09:21:14;5;5;
44350;PMS5003;62766;62.622;17.912;2023-09-19T09:23:42;6;6;
44350;PMS5003;62766;62.622;17.912;2023-09-19T09:26:11;5;5;
44350;PMS5003;62766;62.622;17.912;2023-09-19T09:28:44;6;6;
44350;PMS5003;62766;62.622;17.912;2023-09-19T09:31:22;8;6;
44350;PMS5003;62766;62.622;17.912;2023-09-19T09:33:53;11;8;
44350;PMS5003;62766;62.622;17.912;2023-09-19T09:36:33;8;8;
44350;PMS5003;62766;62.622;17.912;2023-09-19T09:39:03;8;6;
44350;PMS5003;62766;62.622;17.912;2023-09-19T09:41:35;8;8;
44350;PMS5003;62766;62.622;17.912;2023-09-19T09:44:11;11;9;
44350;PMS5003;62766;62.622;17.912;2023-09-19T09:46:42;7;5;
44350;PMS5003;62766;62.622;17.912;2023-09-19T09:49:12;9;8;
44350;PMS5003;62766;62.622;17.912;2023-09-19T09:51:40;9;9;
44350;PMS5003;62766;62.622;17.912;2023-09-19T09:54:10;11;9;
44350;PMS5003;62766;62.622;17.912;2023-09-19T09:56:51;13;13;
44350;PMS5003;62766;62.622;17.912;2023-09-19T09:59:20;12;11;
44350;PMS5003;62766;62.622;17.912;2023-09-19T10:03:30;13;12;
44350;PMS5003;62766;62.622;17.912;2023-09-19T10:05:59;13;9;
44350;PMS5003;62766;62.622;17.912;2023-09-19T10:08:28;12;12;
44350;PMS5003;62766;62.622;17.912;2023-09-19T10:10:57;11;11;
44350;PMS5003;62766;62.622;17.912;2023-09-19T10:13:26;18;14;
44350;PMS5003;62766;62.622;17.912;2023-09-19T10:15:57;11;11;
44350;PMS5003;62766;62.622;17.912;2023-09-19T10:18:33;17;13;
44350;PMS5003;62766;62.622;17.912;2023-09-19T10:21:05;14;13;
44350;PMS5003;62766;62.622;17.912;2023-09-19T10:23:38;16;14;
44350;PMS5003;62766;62.622;17.912;2023-09-19T10:26:10;14;12;
44350;PMS5003;62766;62.622;17.912;2023-09-19T10:28:40;15;14;
44350;PMS5003;62766;62.622;17.912;2023-09-19T10:31:10;16;14;
44350;PMS5003;62766;62.622;17.912;2023-09-19T10:33:38;12;11;
44350;PMS5003;62766;62.622;17.912;2023-09-19T10:36:08;17;17;
44350;PMS5003;62766;62.622;17.912;2023-09-19T10:38:39;14;12;
44350;PMS5003;62766;62.622;17.912;2023-09-19T10:41:11;12;12;
44350;PMS5003;62766;62.622;17.912;2023-09-19T10:43:43;12;9;
44350;PMS5003;62766;62.622;17.912;2023-09-19T10:46:16;10;10;
44350;PMS5003;62766;62.622;17.912;2023-09-19T10:48:45;11;10;
44350;PMS5003;62766;62.622;17.912;2023-09-19T10:51:14;9;9;
44350;PMS5003;62766;62.622;17.912;2023-09-19T10:53:48;8;7;
44350;PMS5003;62766;62.622;17.912;2023-09-19T10:56:21;9;9;
44350;PMS5003;62766;62.622;17.912;2023-09-19T10:59:05;7;7;
44350;PMS5003;62766;62.622;17.912;2023-09-19T11:01:51;8;8;
44350;PMS5003;62766;62.622;17.912;2023-09-19T11:04:21;8;7;
44350;PMS5003;62766;62.622;17.912;2023-09-19T11:07:00;9;7;
44350;PMS5003;62766;62.622;17.912;2023-09-19T11:09:46;12;12;
44350;PMS5003;62766;62.622;17.912;2023-09-19T11:12:47;16;15;
44350;PMS5003;62766;62.622;17.912;2023-09-19T11:16:20;16;16;
44350;PMS5003;62766;62.622;17.912;2023-09-19T11:18:51;17;14;
44350;PMS5003;62766;62.622;17.912;2023-09-19T11:21:52;18;17;
44350;PMS5003;62766;62.622;17.912;2023-09-19T11:24:28;17;16;
44350;PMS5003;62766;62.622;17.912;2023-09-19T11:27:16;17;17;
44350;PMS5003;62766;62.622;17.912;2023-09-19T11:29:45;19;19;
44350;PMS5003;62766;62.622;17.912;2023-09-19T11:32:13;22;20;
44350;PMS5003;62766;62.622;17.912;2023-09-19T11:34:44;22;22;
44350;PMS5003;62766;62.622;17.912;2023-09-19T11:38:18;24;21;
44350;PMS5003;62766;62.622;17.912;2023-09-19T11:41:36;26;24;
44350;PMS5003;62766;62.622;17.912;2023-09-19T11:44:37;22;22;
44350;PMS5003;62766;62.622;17.912;2023-09-19T11:47:06;27;27;
44350;PMS5003;62766;62.622;17.912;2023-09-19T11:49:38;26;23;
44350;PMS5003;62766;62.622;17.912;2023-09-19T11:52:09;28;27;
44350;PMS5003;62766;62.622;17.912;2023-09-19T11:54:38;27;27;
44350;PMS5003;62766;62.622;17.912;2023-09-19T11:57:08;30;26;
44350;PMS5003;62766;62.622;17.912;2023-09-19T11:59:38;30;28;
44350;PMS5003;62766;62.622;17.912;2023-09-19T12:02:07;26;26;
44350;PMS5003;62766;62.622;17.912;2023-09-19T12:04:45;29;29;
44350;PMS5003;62766;62.622;17.912;2023-09-19T12:07:14;31;31;
44350;PMS5003;62766;62.622;17.912;2023-09-19T12:09:45;25;25;
44350;PMS5003;62766;62.622;17.912;2023-09-19T12:12:19;33;32;
44350;PMS5003;62766;62.622;17.912;2023-09-19T12:14:48;34;30;
44350;PMS5003;62766;62.622;17.912;2023-09-19T12:17:16;33;32;
44350;PMS5003;62766;62.622;17.912;2023-09-19T12:19:49;33;33;
44350;PMS5003;62766;62.622;17.912;2023-09-19T12:22:25;34;31;
44350;PMS5003;62766;62.622;17.912;2023-09-19T12:25:06;34;30;
44350;PMS5003;62766;62.622;17.912;2023-09-19T12:27:41;28;26;
44350;PMS5003;62766;62.622;17.912;2023-09-19T12:30:10;24;24;
44350;PMS5003;62766;62.622;17.912;2023-09-19T12:32:40;31;31;
44350;PMS5003;62766;62.622;17.912;2023-09-19T12:35:09;32;29;
44350;PMS5003;62766;62.622;17.912;2023-09-19T12:37:42;28;28;
44350;PMS5003;62766;62.622;17.912;2023-09-19T12:40:13;38;30;
44350;PMS5003;62766;62.622;17.912;2023-09-19T12:42:42;28;28;
44350;PMS5003;62766;62.622;17.912;2023-09-19T12:45:11;28;28;
44350;PMS5003;62766;62.622;17.912;2023-09-19T12:47:41;29;26;
44350;PMS5003;62766;62.622;17.912;2023-09-19T12:51:17;30;30;
44350;PMS5003;62766;62.622;17.912;2023-09-19T12:53:46;28;28;
44350;PMS5003;62766;62.622;17.912;2023-09-19T12:56:26;25;23;
44350;PMS5003;62766;62.622;17.912;2023-09-19T12:58:55;33;29;
44350;PMS5003;62766;62.622;17.912;2023-09-19T13:01:25;31;30;
44350;PMS5003;62766;62.622;17.912;2023-09-19T13:04:10;37;34;
44350;PMS5003;62766;62.622;17.912;2023-09-19T13:06:39;28;27;
44350;PMS5003;62766;62.622;17.912;2023-09-19T13:09:08;30;28;
44350;PMS5003;62766;62.622;17.912;2023-09-19T13:11:36;40;36;
44350;PMS5003;62766;62.622;17.912;2023-09-19T13:14:14;32;31;
44350;PMS5003;62766;62.622;17.912;2023-09-19T13:16:53;32;31;
44350;PMS5003;62766;62.622;17.912;2023-09-19T13:19:35;27;26;
44350;PMS5003;62766;62.622;17.912;2023-09-19T13:22:05;29;27;
44350;PMS5003;62766;62.622;17.912;2023-09-19T13:24:38;30;29;
44350;PMS5003;62766;62.622;17.912;2023-09-19T13:27:07;29;26;
44350;PMS5003;62766;62.622;17.912;2023-09-19T13:29:36;34;31;
44350;PMS5003;62766;62.622;17.912;2023-09-19T13:32:06;33;32;
44350;PMS5003;62766;62.622;17.912;2023-09-19T13:34:34;31;29;
44350;PMS5003;62766;62.622;17.912;2023-09-19T13:37:03;34;33;
44350;PMS5003;62766;62.622;17.912;2023-09-19T13:39:32;34;29;
44350;PMS5003;62766;62.622;17.912;2023-09-19T13:42:00;32;32;
44350;PMS5003;62766;62.622;17.912;2023-09-19T13:44:28;26;25;
44350;PMS5003;62766;62.622;17.912;2023-09-19T13:46:57;32;32;
44350;PMS5003;62766;62.622;17.912;2023-09-19T13:49:26;25;24;
44350;PMS5003;62766;62.622;17.912;2023-09-19T13:51:54;26;25;
44350;PMS5003;62766;62.622;17.912;2023-09-19T13:54:22;25;25;
44350;PMS5003;62766;62.622;17.912;2023-09-19T13:56:52;27;27;
44350;PMS5003;62766;62.622;17.912;2023-09-19T13:59:20;25;25;
44350;PMS5003;62766;62.622;17.912;2023-09-19T14:01:48;29;27;
44350;PMS5003;62766;62.622;17.912;2023-09-19T14:04:17;26;25;
44350;PMS5003;62766;62.622;17.912;2023-09-19T14:06:45;28;28;
44350;PMS5003;62766;62.622;17.912;2023-09-19T14:09:14;35;32;
44350;PMS5003;62766;62.622;17.912;2023-09-19T14:11:42;25;24;
44350;PMS5003;62766;62.622;17.912;2023-09-19T14:14:12;31;31;
44350;PMS5003;62766;62.622;17.912;2023-09-19T14:16:40;29;29;
44350;PMS5003;62766;62.622;17.912;2023-09-19T14:19:10;26;26;
44350;PMS5003;62766;62.622;17.912;2023-09-19T14:21:37;25;25;
44350;PMS5003;62766;62.622;17.912;2023-09-19T14:24:06;29;29;
44350;PMS5003;62766;62.622;17.912;2023-09-19T14:26:36;28;28;
44350;PMS5003;62766;62.622;17.912;2023-09-19T14:29:05;27;24;
44350;PMS5003;62766;62.622;17.912;2023-09-19T14:31:36;26;24;
44350;PMS5003;62766;62.622;17.912;2023-09-19T14:34:06;28;27;
44350;PMS5003;62766;62.622;17.912;2023-09-19T14:36:35;29;25;
44350;PMS5003;62766;62.622;17.912;2023-09-19T14:39:05;23;23;
44350;PMS5003;62766;62.622;17.912;2023-09-19T14:41:34;24;24;
44350;PMS5003;62766;62.622;17.912;2023-09-19T14:44:02;26;23;
44350;PMS5003;62766;62.622;17.912;2023-09-19T14:46:32;22;21;
44350;PMS5003;62766;62.622;17.912;2023-09-19T14:49:00;27;26;
44350;PMS5003;62766;62.622;17.912;2023-09-19T14:51:29;21;18;
44350;PMS5003;62766;62.622;17.912;2023-09-19T14:53:57;23;20;
44350;PMS5003;62766;62.622;17.912;2023-09-19T14:56:26;21;19;
44350;PMS5003;62766;62.622;17.912;2023-09-19T14:58:54;26;26;
44350;PMS5003;62766;62.622;17.912;2023-09-19T15:01:24;27;26;
44350;PMS5003;62766;62.622;17.912;2023-09-19T15:03:52;23;23;
44350;PMS5003;62766;62.622;17.912;2023-09-19T15:06:21;21;21;
44350;PMS5003;62766;62.622;17.912;2023-09-19T15:08:49;21;21;
44350;PMS5003;62766;62.622;17.912;2023-09-19T15:11:19;20;20;
44350;PMS5003;62766;62.622;17.912;2023-09-19T15:13:51;22;20;
44350;PMS5003;62766;62.622;17.912;2023-09-19T15:16:20;18;17;
44350;PMS5003;62766;62.622;17.912;2023-09-19T15:18:54;15;14;
44350;PMS5003;62766;62.622;17.912;2023-09-19T15:21:23;18;18;
44350;PMS5003;62766;62.622;17.912;2023-09-19T15:23:52;16;16;
44350;PMS5003;62766;62.622;17.912;2023-09-19T15:26:20;19;19;
44350;PMS5003;62766;62.622;17.912;2023-09-19T15:28:49;14;14;
44350;PMS5003;62766;62.622;17.912;2023-09-19T15:31:17;14;14;
44350;PMS5003;62766;62.622;17.912;2023-09-19T15:33:45;22;20;
44350;PMS5003;62766;62.622;17.912;2023-09-19T15:36:15;18;17;
44350;PMS5003;62766;62.622;17.912;2023-09-19T15:38:55;13;13;
44350;PMS5003;62766;62.622;17.912;2023-09-19T15:41:26;13;12;
44350;PMS5003;62766;62.622;17.912;2023-09-19T15:43:55;13;13;
44350;PMS5003;62766;62.622;17.912;2023-09-19T15:46:25;20;17;
44350;PMS5003;62766;62.622;17.912;2023-09-19T15:48:54;15;15;
44350;PMS5003;62766;62.622;17.912;2023-09-19T15:51:23;21;19;
44350;PMS5003;62766;62.622;17.912;2023-09-19T15:53:53;15;15;
44350;PMS5003;62766;62.622;17.912;2023-09-19T15:56:23;12;12;
44350;PMS5003;62766;62.622;17.912;2023-09-19T15:58:54;13;13;
44350;PMS5003;62766;62.622;17.912;2023-09-19T16:03:35;15;15;
44350;PMS5003;62766;62.622;17.912;2023-09-19T16:06:07;11;11;
44350;PMS5003;62766;62.622;17.912;2023-09-19T16:08:38;11;11;
44350;PMS5003;62766;62.622;17.912;2023-09-19T16:11:09;9;9;
44350;PMS5003;62766;62.622;17.912;2023-09-19T16:13:39;10;10;
44350;PMS5003;62766;62.622;17.912;2023-09-19T16:16:09;10;10;
44350;PMS5003;62766;62.622;17.912;2023-09-19T16:18:39;12;11;
44350;PMS5003;62766;62.622;17.912;2023-09-19T16:21:09;8;8;
44350;PMS5003;62766;62.622;17.912;2023-09-19T16:23:37;9;9;
44350;PMS5003;62766;62.622;17.912;2023-09-19T16:26:06;10;10;
44350;PMS5003;62766;62.622;17.912;2023-09-19T16:28:36;6;6;
44350;PMS5003;62766;62.622;17.912;2023-09-19T16:31:06;6;6;
44350;PMS5003;62766;62.622;17.912;2023-09-19T16:33:36;4;4;
44350;PMS5003;62766;62.622;17.912;2023-09-19T16:36:06;9;8;
44350;PMS5003;62766;62.622;17.912;2023-09-19T16:38:36;5;5;
44350;PMS5003;62766;62.622;17.912;2023-09-19T16:41:06;7;7;
44350;PMS5003;62766;62.622;17.912;2023-09-19T16:43:35;6;5;
44350;PMS5003;62766;62.622;17.912;2023-09-19T16:46:04;6;5;
44350;PMS5003;62766;62.622;17.912;2023-09-19T16:48:34;7;4;
44350;PMS5003;62766;62.622;17.912;2023-09-19T16:51:04;4;4;
44350;PMS5003;62766;62.622;17.912;2023-09-19T16:53:34;4;4;